Thursday, May 24, 2018, 7:21 PM GMT
Back to Local

CWNH, Riviere Du Loup, Que.

Location: , , Canada Lat: 47.8
Local Time: 7:21 PM GMT (19:21 GMT) Lon: -69.55
Time Zone: GMT Elev: 485 ft

Show me the last for .
Show Coded

Time T Td Feel RH Dir Speed Gust Alt SLP Vis Weather Sky Remarks
2018-05-24 19:00 54 22 - 27 220° 7 - - 29.98 0 None
2018-05-24 18:00 50 31 - 47 260° 6 - - 30.00 0 None
2018-05-24 17:00 56 24 - 28 230° 5 - - 30.02 0 None
2018-05-24 16:00 54 27 - 35 280° 5 - - 30.06 0 None
2018-05-24 15:00 52 25 - 35 280° 2 - - 30.08 0 None
2018-05-24 14:00 50 30 - 45 290° 2 - - 30.09 0 None
2018-05-24 13:00 46 32 - 58 340° 2 - - 30.10 0 None
2018-05-24 12:00 45 32 43 60 30° 3 - - 30.11 0 None
2018-05-24 11:00 41 31 - 67 50° 1 - - 30.09 0 None
2018-05-24 10:00 35 34 - 95 150° 2 - - 30.07 0 None
2018-05-24 09:00 34 33 - 95 80° 1 - - 30.05 0 None
2018-05-24 08:00 33 32 - 93 110° 1 - - 30.03 0 None
2018-05-24 07:00 35 32 31 87 10° 5 - - 30.02 0 None
2018-05-24 06:00 37 34 33 90 330° 5 - - 30.02 0 None
2018-05-24 05:00 37 35 - 93 - Calm - - 30.02 0 None
2018-05-24 04:00 40 35 38 80 160° 3 - - 30.00 0 None
2018-05-24 03:00 40 35 - 81 140° 2 - - 30.01 0 None
2018-05-24 02:00 40 33 - 75 60° 1 - - 30.01 0 None
2018-05-24 01:00 41 35 38 79 290° 5 - - 30.00 0 None
2018-05-24 00:00 46 33 - 60 160° 2 - - 29.99 0 None
2018-05-23 23:00 49 34 48 54 140° 3 - - 30.00 0 None
2018-05-23 22:00 49 31 - 49 110° 2 - - 30.00 0 None
2018-05-23 21:00 48 30 47 50 270° 3 - - 30.00 0 None
2018-05-23 20:00 46 28 43 48 340° 7 - - 30.00 0 None

Support USWX by starting your Amazon purchase here.